Anglian Lady — VOLP — position and weather

sailwx.info

Track history (hours):
 
Tides and Currents Weather Stations Pressure Air Temp Water Temp Dewpoint Dewpoint Depression Visibility Wind Speed Wind Dir Waves Ship Positions

Anglian Lady

Last reported at 2017-Jun-23 10:00 UTC. Time now 2017-Jun-23 10:26 UTC.
Position N 45°49' W 084°56'.

Length 32 m.

Type: Tug. MMSI: 316002238.

Date/timePositionNaut miles runAvg speedWind from/ knotsBaromVisibWave heightAir tempDewpointWater temp
2017-Jun-23 10:00N 45°49' W 084°56'4 8.3
2017-Jun-23 09:31N 45°50' W 085°02'4 8.8
2017-Jun-23 09:00N 45°50' W 085°08'4 8.5
2017-Jun-23 08:30N 45°45' W 085°09'4 8.4
2017-Jun-23 08:01N 45°42' W 085°12'4 8.6
2017-Jun-23 07:30N 45°39' W 085°16'4 8.4
2017-Jun-23 07:00N 45°35' W 085°20'4 8.5
2017-Jun-23 06:30N 45°32' W 085°23'4 8.6
2017-Jun-23 06:01N 45°28' W 085°27'4 8.7
2017-Jun-23 05:30N 45°25' W 085°31'4 8.6
2017-Jun-23 05:00N 45°21' W 085°34'4 8.7
2017-Jun-23 04:31N 45°18' W 085°38'4 8.7
2017-Jun-23 04:00N 45°14' W 085°42'5 8.6
2017-Jun-23 03:27N 45°11' W 085°46'  
2017-Jun-19 16:35N 45°17' W 085°42'1 6.9
2017-Jun-19 16:30N 45°18' W 085°41'3 7.0
2017-Jun-19 16:00N 45°20' W 085°38'3 7.0
2017-Jun-19 15:31N 45°23' W 085°35'5 7.0
2017-Jun-19 14:46N 45°27' W 085°31'2 7.1
2017-Jun-19 14:30N 45°29' W 085°29'7 7.0
2017-Jun-19 13:31N 45°34' W 085°23'3 6.8
2017-Jun-19 13:00N 45°37' W 085°20'3 6.8
2017-Jun-19 12:31N 45°40' W 085°17'3 6.8
2017-Jun-19 12:00N 45°43' W 085°15'3 6.6
2017-Jun-19 11:31N 45°45' W 085°11'3 6.0
2017-Jun-19 11:00N 45°47' W 085°09'3 5.7
2017-Jun-19 10:30N 45°50' W 085°07'3 6.0
2017-Jun-19 10:01N 45°50' W 085°02'3 6.0
2017-Jun-19 09:30N 45°50' W 084°58'3 6.0
2017-Jun-19 09:00N 45°49' W 084°54'23 0.5
2017-Jun-17 12:16N 45°51' W 084°21'2 8.2
2017-Jun-17 12:00N 45°51' W 084°24'4 8.4
2017-Jun-17 11:30N 45°51' W 084°30'4 8.4
2017-Jun-17 11:00N 45°51' W 084°36'4 8.2
2017-Jun-17 10:31N 45°49' W 084°41'4 7.8
2017-Jun-17 10:00N 45°49' W 084°47'4 8.2
2017-Jun-17 09:31N 45°49' W 084°53'4 7.9
2017-Jun-17 09:00N 45°49' W 084°58'4 8.3
2017-Jun-17 08:30N 45°50' W 085°04'3 6.7
2017-Jun-17 08:00N 45°48' W 085°09'4 8.4
2017-Jun-17 07:30N 45°44' W 085°10'4 8.5
2017-Jun-17 07:00N 45°41' W 085°14'4 8.7
2017-Jun-17 06:30N 45°37' W 085°18'4 8.7
2017-Jun-17 06:00N 45°34' W 085°22'4 8.5
2017-Jun-17 05:31N 45°31' W 085°25'4 8.3
2017-Jun-17 05:00N 45°27' W 085°29'4 8.4
2017-Jun-17 04:30N 45°24' W 085°32'4 8.5
2017-Jun-17 04:00N 45°20' W 085°36'4 8.5
2017-Jun-17 03:30N 45°17' W 085°39'26 8.5
2017-Jun-17 00:24N 44°58' W 086°05'4 9.0
2017-Jun-16 23:55N 44°56' W 086°10'4 8.5
2017-Jun-16 23:28N 44°53' W 086°14'  
Track history (hours):
 
Tides and Currents Weather Stations Pressure Air Temp Water Temp Dewpoint Dewpoint Depression Visibility Wind Speed Wind Dir Waves Ship Positions

Anglian Lady

Last reported at 2017-Jun-23 10:00 UTC. Time now 2017-Jun-23 10:26 UTC.
Position N 45°49' W 084°56'.

Length 32 m.

Type: Tug. MMSI: 316002238.

Date/timePositionNaut miles runAvg speedWind from/ knotsBaromVisibWave heightAir tempDewpointWater temp
2017-Jun-23 10:00N 45°49' W 084°56'4 8.3
2017-Jun-23 09:31N 45°50' W 085°02'4 8.8
2017-Jun-23 09:00N 45°50' W 085°08'4 8.5
2017-Jun-23 08:30N 45°45' W 085°09'4 8.4
2017-Jun-23 08:01N 45°42' W 085°12'4 8.6
2017-Jun-23 07:30N 45°39' W 085°16'4 8.4
2017-Jun-23 07:00N 45°35' W 085°20'4 8.5
2017-Jun-23 06:30N 45°32' W 085°23'4 8.6
2017-Jun-23 06:01N 45°28' W 085°27'4 8.7
2017-Jun-23 05:30N 45°25' W 085°31'4 8.6
2017-Jun-23 05:00N 45°21' W 085°34'4 8.7
2017-Jun-23 04:31N 45°18' W 085°38'4 8.7
2017-Jun-23 04:00N 45°14' W 085°42'5 8.6
2017-Jun-23 03:27N 45°11' W 085°46'  
2017-Jun-19 16:35N 45°17' W 085°42'1 6.9
2017-Jun-19 16:30N 45°18' W 085°41'3 7.0
2017-Jun-19 16:00N 45°20' W 085°38'3 7.0
2017-Jun-19 15:31N 45°23' W 085°35'5 7.0
2017-Jun-19 14:46N 45°27' W 085°31'2 7.1
2017-Jun-19 14:30N 45°29' W 085°29'7 7.0
2017-Jun-19 13:31N 45°34' W 085°23'3 6.8
2017-Jun-19 13:00N 45°37' W 085°20'3 6.8
2017-Jun-19 12:31N 45°40' W 085°17'3 6.8
2017-Jun-19 12:00N 45°43' W 085°15'3 6.6
2017-Jun-19 11:31N 45°45' W 085°11'3 6.0
2017-Jun-19 11:00N 45°47' W 085°09'3 5.7
2017-Jun-19 10:30N 45°50' W 085°07'3 6.0
2017-Jun-19 10:01N 45°50' W 085°02'3 6.0
2017-Jun-19 09:30N 45°50' W 084°58'3 6.0
2017-Jun-19 09:00N 45°49' W 084°54'23 0.5
2017-Jun-17 12:16N 45°51' W 084°21'2 8.2
2017-Jun-17 12:00N 45°51' W 084°24'4 8.4
2017-Jun-17 11:30N 45°51' W 084°30'4 8.4
2017-Jun-17 11:00N 45°51' W 084°36'4 8.2
2017-Jun-17 10:31N 45°49' W 084°41'4 7.8
2017-Jun-17 10:00N 45°49' W 084°47'4 8.2
2017-Jun-17 09:31N 45°49' W 084°53'4 7.9
2017-Jun-17 09:00N 45°49' W 084°58'4 8.3
2017-Jun-17 08:30N 45°50' W 085°04'3 6.7
2017-Jun-17 08:00N 45°48' W 085°09'4 8.4
2017-Jun-17 07:30N 45°44' W 085°10'4 8.5
2017-Jun-17 07:00N 45°41' W 085°14'4 8.7
2017-Jun-17 06:30N 45°37' W 085°18'4 8.7
2017-Jun-17 06:00N 45°34' W 085°22'4 8.5
2017-Jun-17 05:31N 45°31' W 085°25'4 8.3
2017-Jun-17 05:00N 45°27' W 085°29'4 8.4
2017-Jun-17 04:30N 45°24' W 085°32'4 8.5
2017-Jun-17 04:00N 45°20' W 085°36'4 8.5
2017-Jun-17 03:30N 45°17' W 085°39'26 8.5
2017-Jun-17 00:24N 44°58' W 086°05'4 9.0
2017-Jun-16 23:55N 44°56' W 086°10'4 8.5
2017-Jun-16 23:28N 44°53' W 086°14'  

Dump ship's entire track history